sensor_id;sensor_type;location;lat;lon;timestamp;P1;durP1;ratioP1;P2;durP2;ratioP2
13685;SDS011;6915;48.296;8.874;2023-10-31T00:01:38;0.20;;;0.20;;
13685;SDS011;6915;48.296;8.874;2023-10-31T00:04:07;0.40;;;0.20;;
13685;SDS011;6915;48.296;8.874;2023-10-31T00:06:33;0.60;;;0.10;;
13685;SDS011;6915;48.296;8.874;2023-10-31T00:09:01;0.20;;;0.20;;
13685;SDS011;6915;48.296;8.874;2023-10-31T00:11:27;0.70;;;0.10;;
13685;SDS011;6915;48.296;8.874;2023-10-31T00:13:54;0.10;;;0.10;;
13685;SDS011;6915;48.296;8.874;2023-10-31T00:16:21;0.33;;;0.10;;
13685;SDS011;6915;48.296;8.874;2023-10-31T00:18:48;0.63;;;0.10;;
13685;SDS011;6915;48.296;8.874;2023-10-31T00:21:16;0.10;;;0.10;;
13685;SDS011;6915;48.296;8.874;2023-10-31T00:23:44;0.20;;;0.20;;
13685;SDS011;6915;48.296;8.874;2023-10-31T00:26:12;0.10;;;0.10;;
13685;SDS011;6915;48.296;8.874;2023-10-31T00:28:38;0.10;;;0.10;;
13685;SDS011;6915;48.296;8.874;2023-10-31T00:31:05;0.73;;;0.20;;
13685;SDS011;6915;48.296;8.874;2023-10-31T00:33:33;0.10;;;0.10;;
13685;SDS011;6915;48.296;8.874;2023-10-31T00:36:00;1.03;;;0.30;;
13685;SDS011;6915;48.296;8.874;2023-10-31T00:38:29;0.30;;;0.30;;
13685;SDS011;6915;48.296;8.874;2023-10-31T00:40:56;0.20;;;0.20;;
13685;SDS011;6915;48.296;8.874;2023-10-31T00:43:22;1.80;;;0.40;;
13685;SDS011;6915;48.296;8.874;2023-10-31T00:45:49;0.70;;;0.20;;
13685;SDS011;6915;48.296;8.874;2023-10-31T00:48:16;0.20;;;0.10;;
13685;SDS011;6915;48.296;8.874;2023-10-31T00:50:44;0.30;;;0.17;;
13685;SDS011;6915;48.296;8.874;2023-10-31T00:53:11;0.20;;;0.20;;
13685;SDS011;6915;48.296;8.874;2023-10-31T00:55:40;0.50;;;0.30;;
13685;SDS011;6915;48.296;8.874;2023-10-31T00:58:07;0.40;;;0.23;;
13685;SDS011;6915;48.296;8.874;2023-10-31T01:00:34;0.30;;;0.20;;
13685;SDS011;6915;48.296;8.874;2023-10-31T01:03:02;0.20;;;0.20;;
13685;SDS011;6915;48.296;8.874;2023-10-31T01:05:29;0.37;;;0.20;;
13685;SDS011;6915;48.296;8.874;2023-10-31T01:07:56;0.33;;;0.30;;
13685;SDS011;6915;48.296;8.874;2023-10-31T01:10:23;0.20;;;0.20;;
13685;SDS011;6915;48.296;8.874;2023-10-31T01:12:51;0.60;;;0.40;;
13685;SDS011;6915;48.296;8.874;2023-10-31T01:15:18;2.03;;;0.17;;
13685;SDS011;6915;48.296;8.874;2023-10-31T01:17:45;1.37;;;0.20;;
13685;SDS011;6915;48.296;8.874;2023-10-31T01:20:12;0.53;;;0.33;;
13685;SDS011;6915;48.296;8.874;2023-10-31T01:22:39;0.73;;;0.30;;
13685;SDS011;6915;48.296;8.874;2023-10-31T01:25:06;0.20;;;0.20;;
13685;SDS011;6915;48.296;8.874;2023-10-31T01:27:33;2.30;;;0.57;;
13685;SDS011;6915;48.296;8.874;2023-10-31T01:30:01;0.30;;;0.30;;
13685;SDS011;6915;48.296;8.874;2023-10-31T01:32:29;0.20;;;0.20;;
13685;SDS011;6915;48.296;8.874;2023-10-31T01:34:56;0.33;;;0.33;;
13685;SDS011;6915;48.296;8.874;2023-10-31T01:37:23;0.30;;;0.30;;
13685;SDS011;6915;48.296;8.874;2023-10-31T01:39:49;0.53;;;0.50;;
13685;SDS011;6915;48.296;8.874;2023-10-31T01:42:16;0.40;;;0.40;;
13685;SDS011;6915;48.296;8.874;2023-10-31T01:44:43;0.97;;;0.30;;
13685;SDS011;6915;48.296;8.874;2023-10-31T01:47:12;0.30;;;0.30;;
13685;SDS011;6915;48.296;8.874;2023-10-31T01:49:38;0.20;;;0.20;;
13685;SDS011;6915;48.296;8.874;2023-10-31T01:52:06;0.30;;;0.30;;
13685;SDS011;6915;48.296;8.874;2023-10-31T01:54:33;0.77;;;0.40;;
13685;SDS011;6915;48.296;8.874;2023-10-31T01:57:01;0.50;;;0.30;;
13685;SDS011;6915;48.296;8.874;2023-10-31T01:59:30;1.70;;;0.40;;
13685;SDS011;6915;48.296;8.874;2023-10-31T02:01:58;1.07;;;0.40;;
13685;SDS011;6915;48.296;8.874;2023-10-31T02:04:28;0.60;;;0.30;;
13685;SDS011;6915;48.296;8.874;2023-10-31T02:06:55;1.60;;;0.30;;
13685;SDS011;6915;48.296;8.874;2023-10-31T02:09:22;2.73;;;0.50;;
13685;SDS011;6915;48.296;8.874;2023-10-31T02:11:51;0.20;;;0.20;;
13685;SDS011;6915;48.296;8.874;2023-10-31T02:14:18;0.27;;;0.23;;
13685;SDS011;6915;48.296;8.874;2023-10-31T02:16:45;0.50;;;0.40;;
13685;SDS011;6915;48.296;8.874;2023-10-31T02:19:12;0.50;;;0.30;;
13685;SDS011;6915;48.296;8.874;2023-10-31T02:21:44;0.47;;;0.30;;
13685;SDS011;6915;48.296;8.874;2023-10-31T02:24:11;0.90;;;0.37;;
13685;SDS011;6915;48.296;8.874;2023-10-31T02:26:38;1.30;;;0.30;;
13685;SDS011;6915;48.296;8.874;2023-10-31T02:29:04;0.77;;;0.33;;
13685;SDS011;6915;48.296;8.874;2023-10-31T02:31:32;1.27;;;0.40;;
13685;SDS011;6915;48.296;8.874;2023-10-31T02:33:59;2.30;;;0.30;;
13685;SDS011;6915;48.296;8.874;2023-10-31T02:36:25;0.20;;;0.20;;
13685;SDS011;6915;48.296;8.874;2023-10-31T02:38:54;0.70;;;0.30;;
13685;SDS011;6915;48.296;8.874;2023-10-31T02:41:20;1.30;;;0.30;;
13685;SDS011;6915;48.296;8.874;2023-10-31T02:43:48;2.30;;;0.40;;
13685;SDS011;6915;48.296;8.874;2023-10-31T02:46:15;1.97;;;0.33;;
13685;SDS011;6915;48.296;8.874;2023-10-31T02:48:42;0.23;;;0.23;;
13685;SDS011;6915;48.296;8.874;2023-10-31T02:51:09;2.40;;;0.20;;
13685;SDS011;6915;48.296;8.874;2023-10-31T02:53:37;1.87;;;0.30;;
13685;SDS011;6915;48.296;8.874;2023-10-31T02:56:05;0.90;;;0.20;;
13685;SDS011;6915;48.296;8.874;2023-10-31T02:58:32;0.50;;;0.30;;
13685;SDS011;6915;48.296;8.874;2023-10-31T03:00:59;0.40;;;0.20;;
13685;SDS011;6915;48.296;8.874;2023-10-31T03:03:26;0.50;;;0.40;;
13685;SDS011;6915;48.296;8.874;2023-10-31T03:05:53;0.30;;;0.30;;
13685;SDS011;6915;48.296;8.874;2023-10-31T03:08:20;1.47;;;0.27;;
13685;SDS011;6915;48.296;8.874;2023-10-31T03:10:47;0.57;;;0.20;;
13685;SDS011;6915;48.296;8.874;2023-10-31T03:13:18;0.40;;;0.30;;
13685;SDS011;6915;48.296;8.874;2023-10-31T03:15:45;1.13;;;0.40;;
13685;SDS011;6915;48.296;8.874;2023-10-31T03:18:12;1.40;;;0.43;;
13685;SDS011;6915;48.296;8.874;2023-10-31T03:20:40;0.57;;;0.40;;
13685;SDS011;6915;48.296;8.874;2023-10-31T03:23:09;1.33;;;0.40;;
13685;SDS011;6915;48.296;8.874;2023-10-31T03:25:36;1.07;;;0.30;;
13685;SDS011;6915;48.296;8.874;2023-10-31T03:28:03;2.20;;;0.47;;
13685;SDS011;6915;48.296;8.874;2023-10-31T03:30:34;1.57;;;0.40;;
13685;SDS011;6915;48.296;8.874;2023-10-31T03:33:01;1.13;;;0.30;;
13685;SDS011;6915;48.296;8.874;2023-10-31T03:35:29;0.30;;;0.30;;
13685;SDS011;6915;48.296;8.874;2023-10-31T03:37:56;0.57;;;0.23;;
13685;SDS011;6915;48.296;8.874;2023-10-31T03:40:22;1.57;;;0.37;;
13685;SDS011;6915;48.296;8.874;2023-10-31T03:42:49;0.37;;;0.20;;
13685;SDS011;6915;48.296;8.874;2023-10-31T03:45:16;0.77;;;0.33;;
13685;SDS011;6915;48.296;8.874;2023-10-31T03:47:45;1.03;;;0.43;;
13685;SDS011;6915;48.296;8.874;2023-10-31T03:50:12;0.80;;;0.40;;
13685;SDS011;6915;48.296;8.874;2023-10-31T03:52:38;1.00;;;0.30;;
13685;SDS011;6915;48.296;8.874;2023-10-31T03:55:06;1.23;;;0.40;;
13685;SDS011;6915;48.296;8.874;2023-10-31T03:57:33;0.73;;;0.20;;
13685;SDS011;6915;48.296;8.874;2023-10-31T04:00:00;0.10;;;0.10;;
13685;SDS011;6915;48.296;8.874;2023-10-31T04:02:29;0.50;;;0.40;;
13685;SDS011;6915;48.296;8.874;2023-10-31T04:04:57;1.17;;;0.30;;
13685;SDS011;6915;48.296;8.874;2023-10-31T04:07:24;1.23;;;0.20;;
13685;SDS011;6915;48.296;8.874;2023-10-31T04:09:51;3.03;;;0.30;;
13685;SDS011;6915;48.296;8.874;2023-10-31T04:12:19;0.43;;;0.30;;
13685;SDS011;6915;48.296;8.874;2023-10-31T04:14:45;0.40;;;0.20;;
13685;SDS011;6915;48.296;8.874;2023-10-31T04:17:12;0.30;;;0.20;;
13685;SDS011;6915;48.296;8.874;2023-10-31T04:19:42;0.50;;;0.20;;
13685;SDS011;6915;48.296;8.874;2023-10-31T04:22:10;1.17;;;0.40;;
13685;SDS011;6915;48.296;8.874;2023-10-31T04:24:37;0.67;;;0.40;;
13685;SDS011;6915;48.296;8.874;2023-10-31T04:27:04;0.40;;;0.40;;
13685;SDS011;6915;48.296;8.874;2023-10-31T04:29:32;1.73;;;0.50;;
13685;SDS011;6915;48.296;8.874;2023-10-31T04:31:59;1.60;;;0.50;;
13685;SDS011;6915;48.296;8.874;2023-10-31T04:34:26;1.80;;;0.47;;
13685;SDS011;6915;48.296;8.874;2023-10-31T04:36:52;0.77;;;0.40;;
13685;SDS011;6915;48.296;8.874;2023-10-31T04:39:21;0.40;;;0.40;;
13685;SDS011;6915;48.296;8.874;2023-10-31T04:41:48;0.43;;;0.43;;
13685;SDS011;6915;48.296;8.874;2023-10-31T04:44:14;2.00;;;0.50;;
13685;SDS011;6915;48.296;8.874;2023-10-31T04:46:41;0.33;;;0.30;;
13685;SDS011;6915;48.296;8.874;2023-10-31T04:49:08;2.00;;;0.23;;
13685;SDS011;6915;48.296;8.874;2023-10-31T04:51:36;0.30;;;0.30;;
13685;SDS011;6915;48.296;8.874;2023-10-31T04:54:03;1.40;;;0.30;;
13685;SDS011;6915;48.296;8.874;2023-10-31T04:56:32;0.57;;;0.20;;
13685;SDS011;6915;48.296;8.874;2023-10-31T04:58:59;0.63;;;0.33;;
13685;SDS011;6915;48.296;8.874;2023-10-31T05:01:26;0.57;;;0.33;;
13685;SDS011;6915;48.296;8.874;2023-10-31T05:03:53;0.77;;;0.20;;
13685;SDS011;6915;48.296;8.874;2023-10-31T05:06:20;0.57;;;0.30;;
13685;SDS011;6915;48.296;8.874;2023-10-31T05:08:48;1.40;;;0.30;;
13685;SDS011;6915;48.296;8.874;2023-10-31T05:11:16;0.47;;;0.40;;
13685;SDS011;6915;48.296;8.874;2023-10-31T05:13:44;0.20;;;0.17;;
13685;SDS011;6915;48.296;8.874;2023-10-31T05:16:11;0.40;;;0.20;;
13685;SDS011;6915;48.296;8.874;2023-10-31T05:18:38;0.57;;;0.17;;
13685;SDS011;6915;48.296;8.874;2023-10-31T05:21:05;0.67;;;0.17;;
13685;SDS011;6915;48.296;8.874;2023-10-31T05:23:32;0.40;;;0.20;;
13685;SDS011;6915;48.296;8.874;2023-10-31T05:25:59;0.27;;;0.20;;
13685;SDS011;6915;48.296;8.874;2023-10-31T05:28:26;2.40;;;0.40;;
13685;SDS011;6915;48.296;8.874;2023-10-31T05:30:54;1.90;;;0.30;;
13685;SDS011;6915;48.296;8.874;2023-10-31T05:33:21;0.93;;;0.33;;
13685;SDS011;6915;48.296;8.874;2023-10-31T05:35:48;0.67;;;0.27;;
13685;SDS011;6915;48.296;8.874;2023-10-31T05:38:15;1.27;;;0.40;;
13685;SDS011;6915;48.296;8.874;2023-10-31T05:40:42;1.80;;;0.30;;
13685;SDS011;6915;48.296;8.874;2023-10-31T05:43:09;0.57;;;0.30;;
13685;SDS011;6915;48.296;8.874;2023-10-31T05:45:36;1.60;;;0.40;;
13685;SDS011;6915;48.296;8.874;2023-10-31T05:48:04;1.03;;;0.40;;
13685;SDS011;6915;48.296;8.874;2023-10-31T05:50:32;0.33;;;0.30;;
13685;SDS011;6915;48.296;8.874;2023-10-31T05:52:59;0.97;;;0.50;;
13685;SDS011;6915;48.296;8.874;2023-10-31T05:55:26;2.43;;;0.50;;
13685;SDS011;6915;48.296;8.874;2023-10-31T05:57:53;1.90;;;0.40;;
13685;SDS011;6915;48.296;8.874;2023-10-31T06:00:20;0.40;;;0.40;;
13685;SDS011;6915;48.296;8.874;2023-10-31T06:02:47;0.50;;;0.40;;
13685;SDS011;6915;48.296;8.874;2023-10-31T06:05:15;1.13;;;0.50;;
13685;SDS011;6915;48.296;8.874;2023-10-31T06:07:42;1.07;;;0.47;;
13685;SDS011;6915;48.296;8.874;2023-10-31T06:10:09;2.00;;;0.80;;
13685;SDS011;6915;48.296;8.874;2023-10-31T06:12:36;1.60;;;0.60;;
13685;SDS011;6915;48.296;8.874;2023-10-31T06:15:03;2.40;;;0.57;;
13685;SDS011;6915;48.296;8.874;2023-10-31T06:17:31;1.50;;;0.60;;
13685;SDS011;6915;48.296;8.874;2023-10-31T06:19:59;0.90;;;0.73;;
13685;SDS011;6915;48.296;8.874;2023-10-31T06:22:28;0.50;;;0.43;;
13685;SDS011;6915;48.296;8.874;2023-10-31T06:24:54;2.33;;;0.80;;
13685;SDS011;6915;48.296;8.874;2023-10-31T06:27:23;1.27;;;0.60;;
13685;SDS011;6915;48.296;8.874;2023-10-31T06:29:50;1.30;;;0.80;;
13685;SDS011;6915;48.296;8.874;2023-10-31T06:32:17;1.03;;;0.57;;
13685;SDS011;6915;48.296;8.874;2023-10-31T06:34:44;1.30;;;0.80;;
13685;SDS011;6915;48.296;8.874;2023-10-31T06:37:11;3.40;;;0.90;;
13685;SDS011;6915;48.296;8.874;2023-10-31T06:39:40;1.53;;;0.80;;
13685;SDS011;6915;48.296;8.874;2023-10-31T06:42:06;2.70;;;1.00;;
13685;SDS011;6915;48.296;8.874;2023-10-31T06:44:33;2.03;;;0.93;;
13685;SDS011;6915;48.296;8.874;2023-10-31T06:47:00;3.37;;;0.80;;
13685;SDS011;6915;48.296;8.874;2023-10-31T06:49:27;3.87;;;1.00;;
13685;SDS011;6915;48.296;8.874;2023-10-31T06:51:54;1.90;;;0.63;;
13685;SDS011;6915;48.296;8.874;2023-10-31T06:54:21;1.37;;;0.70;;
13685;SDS011;6915;48.296;8.874;2023-10-31T06:56:49;3.10;;;0.60;;
13685;SDS011;6915;48.296;8.874;2023-10-31T06:59:16;1.83;;;0.90;;
13685;SDS011;6915;48.296;8.874;2023-10-31T07:01:43;1.30;;;0.63;;
13685;SDS011;6915;48.296;8.874;2023-10-31T07:04:11;1.47;;;0.87;;
13685;SDS011;6915;48.296;8.874;2023-10-31T07:06:39;2.43;;;0.60;;
13685;SDS011;6915;48.296;8.874;2023-10-31T07:09:05;1.80;;;0.90;;
13685;SDS011;6915;48.296;8.874;2023-10-31T07:11:32;1.17;;;0.80;;
13685;SDS011;6915;48.296;8.874;2023-10-31T07:14:01;4.33;;;1.13;;
13685;SDS011;6915;48.296;8.874;2023-10-31T07:16:28;2.10;;;0.87;;
13685;SDS011;6915;48.296;8.874;2023-10-31T07:18:55;2.63;;;0.70;;
13685;SDS011;6915;48.296;8.874;2023-10-31T07:21:22;2.43;;;1.10;;
13685;SDS011;6915;48.296;8.874;2023-10-31T07:23:49;1.67;;;0.60;;
13685;SDS011;6915;48.296;8.874;2023-10-31T07:26:16;1.43;;;0.70;;
13685;SDS011;6915;48.296;8.874;2023-10-31T07:28:46;1.93;;;0.70;;
13685;SDS011;6915;48.296;8.874;2023-10-31T07:31:15;2.93;;;0.90;;
13685;SDS011;6915;48.296;8.874;2023-10-31T07:33:43;1.80;;;0.77;;
13685;SDS011;6915;48.296;8.874;2023-10-31T07:36:10;1.67;;;0.70;;
13685;SDS011;6915;48.296;8.874;2023-10-31T07:38:37;2.67;;;0.83;;
13685;SDS011;6915;48.296;8.874;2023-10-31T07:41:04;3.03;;;0.70;;
13685;SDS011;6915;48.296;8.874;2023-10-31T07:43:31;2.83;;;0.93;;
13685;SDS011;6915;48.296;8.874;2023-10-31T07:45:58;3.10;;;0.80;;
13685;SDS011;6915;48.296;8.874;2023-10-31T07:48:26;6.07;;;0.97;;
13685;SDS011;6915;48.296;8.874;2023-10-31T07:50:53;1.93;;;0.70;;
13685;SDS011;6915;48.296;8.874;2023-10-31T07:53:20;1.67;;;0.70;;
13685;SDS011;6915;48.296;8.874;2023-10-31T07:55:47;2.93;;;0.70;;
13685;SDS011;6915;48.296;8.874;2023-10-31T07:58:15;2.40;;;0.60;;
13685;SDS011;6915;48.296;8.874;2023-10-31T08:00:42;1.70;;;0.70;;
13685;SDS011;6915;48.296;8.874;2023-10-31T08:03:08;2.90;;;0.77;;
13685;SDS011;6915;48.296;8.874;2023-10-31T08:05:37;3.20;;;0.73;;
13685;SDS011;6915;48.296;8.874;2023-10-31T08:08:04;2.53;;;0.70;;
13685;SDS011;6915;48.296;8.874;2023-10-31T08:10:31;1.93;;;0.83;;
13685;SDS011;6915;48.296;8.874;2023-10-31T08:12:59;0.80;;;0.50;;
13685;SDS011;6915;48.296;8.874;2023-10-31T08:15:26;1.97;;;0.80;;
13685;SDS011;6915;48.296;8.874;2023-10-31T08:17:53;3.07;;;0.70;;
13685;SDS011;6915;48.296;8.874;2023-10-31T08:20:20;3.30;;;0.73;;
13685;SDS011;6915;48.296;8.874;2023-10-31T08:22:48;4.77;;;0.80;;
13685;SDS011;6915;48.296;8.874;2023-10-31T08:25:15;5.10;;;1.20;;
13685;SDS011;6915;48.296;8.874;2023-10-31T08:27:42;3.27;;;0.93;;
13685;SDS011;6915;48.296;8.874;2023-10-31T08:30:10;2.50;;;0.80;;
13685;SDS011;6915;48.296;8.874;2023-10-31T08:32:37;5.20;;;0.90;;
13685;SDS011;6915;48.296;8.874;2023-10-31T08:35:04;1.67;;;0.60;;
13685;SDS011;6915;48.296;8.874;2023-10-31T08:37:31;2.77;;;0.77;;
13685;SDS011;6915;48.296;8.874;2023-10-31T08:39:59;2.80;;;0.73;;
13685;SDS011;6915;48.296;8.874;2023-10-31T08:42:28;3.67;;;1.07;;
13685;SDS011;6915;48.296;8.874;2023-10-31T08:44:55;2.63;;;0.80;;
13685;SDS011;6915;48.296;8.874;2023-10-31T08:47:22;3.93;;;0.70;;
13685;SDS011;6915;48.296;8.874;2023-10-31T08:49:49;1.73;;;0.70;;
13685;SDS011;6915;48.296;8.874;2023-10-31T08:52:16;1.57;;;0.53;;
13685;SDS011;6915;48.296;8.874;2023-10-31T08:54:44;2.80;;;0.80;;
13685;SDS011;6915;48.296;8.874;2023-10-31T08:57:12;4.77;;;1.10;;
13685;SDS011;6915;48.296;8.874;2023-10-31T08:59:39;1.37;;;0.60;;
13685;SDS011;6915;48.296;8.874;2023-10-31T09:02:06;1.60;;;0.60;;
13685;SDS011;6915;48.296;8.874;2023-10-31T09:04:32;1.70;;;0.90;;
13685;SDS011;6915;48.296;8.874;2023-10-31T09:07:00;8.37;;;1.10;;
13685;SDS011;6915;48.296;8.874;2023-10-31T09:09:27;3.70;;;0.77;;
13685;SDS011;6915;48.296;8.874;2023-10-31T09:11:53;5.63;;;0.97;;
13685;SDS011;6915;48.296;8.874;2023-10-31T09:14:22;1.43;;;0.70;;
13685;SDS011;6915;48.296;8.874;2023-10-31T09:16:49;2.83;;;1.20;;
13685;SDS011;6915;48.296;8.874;2023-10-31T09:19:16;2.77;;;0.70;;
13685;SDS011;6915;48.296;8.874;2023-10-31T09:21:43;1.03;;;0.70;;
13685;SDS011;6915;48.296;8.874;2023-10-31T09:24:10;1.93;;;0.90;;
13685;SDS011;6915;48.296;8.874;2023-10-31T09:26:39;3.40;;;0.77;;
13685;SDS011;6915;48.296;8.874;2023-10-31T09:29:08;4.87;;;0.93;;
13685;SDS011;6915;48.296;8.874;2023-10-31T09:31:37;3.17;;;0.50;;
13685;SDS011;6915;48.296;8.874;2023-10-31T09:34:04;4.67;;;0.73;;
13685;SDS011;6915;48.296;8.874;2023-10-31T09:36:32;2.17;;;0.60;;
13685;SDS011;6915;48.296;8.874;2023-10-31T09:38:59;4.70;;;0.80;;
13685;SDS011;6915;48.296;8.874;2023-10-31T09:41:27;1.67;;;0.57;;
13685;SDS011;6915;48.296;8.874;2023-10-31T09:43:54;1.53;;;0.53;;
13685;SDS011;6915;48.296;8.874;2023-10-31T09:46:21;1.37;;;0.70;;
13685;SDS011;6915;48.296;8.874;2023-10-31T09:48:49;3.17;;;0.70;;
13685;SDS011;6915;48.296;8.874;2023-10-31T09:51:17;1.73;;;0.80;;
13685;SDS011;6915;48.296;8.874;2023-10-31T09:53:44;2.00;;;0.87;;
13685;SDS011;6915;48.296;8.874;2023-10-31T09:56:12;1.60;;;0.40;;
13685;SDS011;6915;48.296;8.874;2023-10-31T09:58:41;2.60;;;0.83;;
13685;SDS011;6915;48.296;8.874;2023-10-31T10:01:08;3.70;;;0.87;;
13685;SDS011;6915;48.296;8.874;2023-10-31T10:03:36;2.47;;;0.60;;
13685;SDS011;6915;48.296;8.874;2023-10-31T10:06:05;1.77;;;0.60;;
13685;SDS011;6915;48.296;8.874;2023-10-31T10:08:36;1.03;;;0.57;;
13685;SDS011;6915;48.296;8.874;2023-10-31T10:11:04;1.67;;;0.73;;
13685;SDS011;6915;48.296;8.874;2023-10-31T10:13:31;2.90;;;0.70;;
13685;SDS011;6915;48.296;8.874;2023-10-31T10:15:59;2.03;;;0.80;;
13685;SDS011;6915;48.296;8.874;2023-10-31T10:18:26;1.83;;;0.67;;
13685;SDS011;6915;48.296;8.874;2023-10-31T10:20:54;3.23;;;0.70;;
13685;SDS011;6915;48.296;8.874;2023-10-31T10:23:23;1.77;;;0.50;;
13685;SDS011;6915;48.296;8.874;2023-10-31T10:25:51;2.20;;;0.70;;
13685;SDS011;6915;48.296;8.874;2023-10-31T10:28:18;0.83;;;0.50;;
13685;SDS011;6915;48.296;8.874;2023-10-31T10:30:45;2.40;;;0.77;;
13685;SDS011;6915;48.296;8.874;2023-10-31T10:33:13;1.27;;;0.70;;
13685;SDS011;6915;48.296;8.874;2023-10-31T10:35:40;1.13;;;0.50;;
13685;SDS011;6915;48.296;8.874;2023-10-31T10:38:09;1.97;;;0.70;;
13685;SDS011;6915;48.296;8.874;2023-10-31T10:40:40;1.10;;;0.50;;
13685;SDS011;6915;48.296;8.874;2023-10-31T10:43:09;2.97;;;0.70;;
13685;SDS011;6915;48.296;8.874;2023-10-31T10:45:41;2.30;;;0.63;;
13685;SDS011;6915;48.296;8.874;2023-10-31T10:48:10;0.40;;;0.40;;
13685;SDS011;6915;48.296;8.874;2023-10-31T10:50:41;1.03;;;0.40;;
13685;SDS011;6915;48.296;8.874;2023-10-31T10:53:13;1.07;;;0.50;;
13685;SDS011;6915;48.296;8.874;2023-10-31T10:55:51;1.57;;;0.50;;
13685;SDS011;6915;48.296;8.874;2023-10-31T10:58:22;0.97;;;0.40;;
13685;SDS011;6915;48.296;8.874;2023-10-31T11:00:54;2.83;;;0.50;;
13685;SDS011;6915;48.296;8.874;2023-10-31T11:03:23;0.83;;;0.40;;
13685;SDS011;6915;48.296;8.874;2023-10-31T11:05:53;1.80;;;0.50;;
13685;SDS011;6915;48.296;8.874;2023-10-31T11:08:20;1.47;;;0.60;;
13685;SDS011;6915;48.296;8.874;2023-10-31T11:10:52;0.80;;;0.60;;
13685;SDS011;6915;48.296;8.874;2023-10-31T11:13:20;1.90;;;0.57;;
13685;SDS011;6915;48.296;8.874;2023-10-31T11:15:49;0.93;;;0.50;;
13685;SDS011;6915;48.296;8.874;2023-10-31T11:18:22;0.83;;;0.40;;
13685;SDS011;6915;48.296;8.874;2023-10-31T11:20:49;1.70;;;0.40;;
13685;SDS011;6915;48.296;8.874;2023-10-31T11:23:16;2.93;;;0.60;;
13685;SDS011;6915;48.296;8.874;2023-10-31T11:25:43;1.07;;;0.60;;
13685;SDS011;6915;48.296;8.874;2023-10-31T11:28:12;1.80;;;0.50;;
13685;SDS011;6915;48.296;8.874;2023-10-31T11:30:41;1.23;;;0.40;;
13685;SDS011;6915;48.296;8.874;2023-10-31T11:33:11;0.93;;;0.47;;
13685;SDS011;6915;48.296;8.874;2023-10-31T11:35:39;1.37;;;0.40;;
13685;SDS011;6915;48.296;8.874;2023-10-31T11:38:07;0.60;;;0.40;;
13685;SDS011;6915;48.296;8.874;2023-10-31T11:40:36;0.43;;;0.40;;
13685;SDS011;6915;48.296;8.874;2023-10-31T11:43:04;1.63;;;0.47;;
13685;SDS011;6915;48.296;8.874;2023-10-31T11:45:35;2.27;;;0.40;;
13685;SDS011;6915;48.296;8.874;2023-10-31T11:48:03;0.70;;;0.50;;
13685;SDS011;6915;48.296;8.874;2023-10-31T11:50:31;1.30;;;0.40;;
13685;SDS011;6915;48.296;8.874;2023-10-31T11:53:02;0.70;;;0.40;;
13685;SDS011;6915;48.296;8.874;2023-10-31T11:55:31;0.67;;;0.40;;
13685;SDS011;6915;48.296;8.874;2023-10-31T11:58:11;2.77;;;0.30;;
13685;SDS011;6915;48.296;8.874;2023-10-31T12:00:40;1.83;;;0.23;;
13685;SDS011;6915;48.296;8.874;2023-10-31T12:03:09;0.40;;;0.10;;
13685;SDS011;6915;48.296;8.874;2023-10-31T12:05:36;0.77;;;0.30;;
13685;SDS011;6915;48.296;8.874;2023-10-31T12:08:03;2.77;;;0.27;;
13685;SDS011;6915;48.296;8.874;2023-10-31T12:10:30;1.13;;;0.30;;
13685;SDS011;6915;48.296;8.874;2023-10-31T12:12:58;2.17;;;0.50;;
13685;SDS011;6915;48.296;8.874;2023-10-31T12:15:25;0.40;;;0.30;;
13685;SDS011;6915;48.296;8.874;2023-10-31T12:17:54;1.03;;;0.30;;
13685;SDS011;6915;48.296;8.874;2023-10-31T12:20:24;0.87;;;0.30;;
13685;SDS011;6915;48.296;8.874;2023-10-31T12:23:01;2.00;;;0.33;;
13685;SDS011;6915;48.296;8.874;2023-10-31T12:25:29;0.77;;;0.33;;
13685;SDS011;6915;48.296;8.874;2023-10-31T12:28:00;0.73;;;0.40;;
13685;SDS011;6915;48.296;8.874;2023-10-31T12:30:27;1.57;;;0.33;;
13685;SDS011;6915;48.296;8.874;2023-10-31T12:32:55;1.27;;;0.40;;
13685;SDS011;6915;48.296;8.874;2023-10-31T12:35:23;0.40;;;0.30;;
13685;SDS011;6915;48.296;8.874;2023-10-31T12:37:52;0.83;;;0.30;;
13685;SDS011;6915;48.296;8.874;2023-10-31T12:40:20;0.90;;;0.30;;
13685;SDS011;6915;48.296;8.874;2023-10-31T12:42:47;0.33;;;0.30;;
13685;SDS011;6915;48.296;8.874;2023-10-31T12:45:15;1.20;;;0.53;;
13685;SDS011;6915;48.296;8.874;2023-10-31T12:47:44;0.87;;;0.30;;
13685;SDS011;6915;48.296;8.874;2023-10-31T12:50:27;2.77;;;0.30;;
13685;SDS011;6915;48.296;8.874;2023-10-31T12:52:55;1.23;;;0.33;;
13685;SDS011;6915;48.296;8.874;2023-10-31T12:55:22;0.37;;;0.30;;
13685;SDS011;6915;48.296;8.874;2023-10-31T12:57:51;3.70;;;0.37;;
13685;SDS011;6915;48.296;8.874;2023-10-31T13:00:19;0.83;;;0.30;;
13685;SDS011;6915;48.296;8.874;2023-10-31T13:02:50;0.37;;;0.23;;
13685;SDS011;6915;48.296;8.874;2023-10-31T13:05:18;1.70;;;0.40;;
13685;SDS011;6915;48.296;8.874;2023-10-31T13:07:50;0.57;;;0.30;;
13685;SDS011;6915;48.296;8.874;2023-10-31T13:10:18;0.67;;;0.47;;
13685;SDS011;6915;48.296;8.874;2023-10-31T13:12:45;0.90;;;0.30;;
13685;SDS011;6915;48.296;8.874;2023-10-31T13:15:13;1.03;;;0.93;;
13685;SDS011;6915;48.296;8.874;2023-10-31T13:17:40;0.60;;;0.50;;
13685;SDS011;6915;48.296;8.874;2023-10-31T13:20:08;0.47;;;0.40;;
13685;SDS011;6915;48.296;8.874;2023-10-31T13:22:36;2.43;;;0.60;;
13685;SDS011;6915;48.296;8.874;2023-10-31T13:25:05;0.67;;;0.23;;
13685;SDS011;6915;48.296;8.874;2023-10-31T13:27:35;1.13;;;0.40;;
13685;SDS011;6915;48.296;8.874;2023-10-31T13:30:03;0.80;;;0.40;;
13685;SDS011;6915;48.296;8.874;2023-10-31T13:32:30;0.80;;;0.30;;
13685;SDS011;6915;48.296;8.874;2023-10-31T13:34:57;1.17;;;0.33;;
13685;SDS011;6915;48.296;8.874;2023-10-31T13:37:24;2.43;;;0.60;;
13685;SDS011;6915;48.296;8.874;2023-10-31T13:39:51;0.50;;;0.30;;
13685;SDS011;6915;48.296;8.874;2023-10-31T13:42:20;0.50;;;0.30;;
13685;SDS011;6915;48.296;8.874;2023-10-31T13:44:47;1.80;;;0.30;;
13685;SDS011;6915;48.296;8.874;2023-10-31T13:47:14;0.87;;;0.33;;
13685;SDS011;6915;48.296;8.874;2023-10-31T13:49:41;0.97;;;0.67;;
13685;SDS011;6915;48.296;8.874;2023-10-31T13:52:08;9.63;;;1.00;;
13685;SDS011;6915;48.296;8.874;2023-10-31T13:54:35;1.83;;;0.70;;
13685;SDS011;6915;48.296;8.874;2023-10-31T13:57:02;1.03;;;0.50;;
13685;SDS011;6915;48.296;8.874;2023-10-31T13:59:31;0.60;;;0.40;;
13685;SDS011;6915;48.296;8.874;2023-10-31T14:01:58;1.33;;;0.70;;
13685;SDS011;6915;48.296;8.874;2023-10-31T14:04:25;5.50;;;0.80;;
13685;SDS011;6915;48.296;8.874;2023-10-31T14:06:54;1.07;;;0.40;;
13685;SDS011;6915;48.296;8.874;2023-10-31T14:09:21;1.13;;;0.47;;
13685;SDS011;6915;48.296;8.874;2023-10-31T14:11:47;0.87;;;0.37;;
13685;SDS011;6915;48.296;8.874;2023-10-31T14:14:15;1.30;;;0.40;;
13685;SDS011;6915;48.296;8.874;2023-10-31T14:16:43;1.30;;;0.50;;
13685;SDS011;6915;48.296;8.874;2023-10-31T14:19:10;0.60;;;0.23;;
13685;SDS011;6915;48.296;8.874;2023-10-31T14:21:39;0.30;;;0.30;;
13685;SDS011;6915;48.296;8.874;2023-10-31T14:24:07;2.07;;;0.40;;
13685;SDS011;6915;48.296;8.874;2023-10-31T14:26:34;0.50;;;0.30;;
13685;SDS011;6915;48.296;8.874;2023-10-31T14:29:03;1.73;;;0.47;;
13685;SDS011;6915;48.296;8.874;2023-10-31T14:31:30;1.27;;;0.50;;
13685;SDS011;6915;48.296;8.874;2023-10-31T14:33:59;0.50;;;0.33;;
13685;SDS011;6915;48.296;8.874;2023-10-31T14:36:26;1.17;;;0.40;;
13685;SDS011;6915;48.296;8.874;2023-10-31T14:38:53;1.70;;;1.23;;
13685;SDS011;6915;48.296;8.874;2023-10-31T14:41:20;1.97;;;1.20;;
13685;SDS011;6915;48.296;8.874;2023-10-31T14:43:46;1.77;;;1.30;;
13685;SDS011;6915;48.296;8.874;2023-10-31T14:46:13;1.23;;;0.73;;
13685;SDS011;6915;48.296;8.874;2023-10-31T14:48:40;1.07;;;0.50;;
13685;SDS011;6915;48.296;8.874;2023-10-31T14:51:08;3.30;;;1.50;;
13685;SDS011;6915;48.296;8.874;2023-10-31T14:53:35;2.30;;;0.90;;
13685;SDS011;6915;48.296;8.874;2023-10-31T14:56:02;0.77;;;0.30;;
13685;SDS011;6915;48.296;8.874;2023-10-31T14:58:31;0.40;;;0.40;;
13685;SDS011;6915;48.296;8.874;2023-10-31T15:00:57;0.40;;;0.37;;
13685;SDS011;6915;48.296;8.874;2023-10-31T15:03:25;1.07;;;0.57;;